ADDS METAR Data INFO
IDs: Format: Raw Decoded Include TAF

Data at: 2044 UTC 19 Jul 2018

PASY 192038Z 22013KT 3/8SM FG OVC002 08/08 A2984 RMK SLP108 WND DATA ESTMD $
PASY 192025Z 22013KT 1/2SM FG OVC002 08/08 A2985 RMK VIS 1/4V1/2 SLP112 WND DATA ESTMD $
PASY 191955Z 23014KT 1/8SM FG VV002 08/08 A2985 RMK SLP111 WND DATA ESTMD T00840081 RVRNO $
PASY 191856Z 22013KT 3/8SM FG VV002 09/08 A2985 RMK VIS N 1/4 SLP112 WND DATA ESTMD T00850082 RVRNO $
PASY 191841Z 22013KT 3/8SM FG OVC002 09/08 A2986 RMK SLP115 WND DATA ESTMD $
PASY 191757Z COR 22012KT 1/8SM FG VV001 09/08 A2986 RMK SLP115 WND DATA ESTMD T00860083 10089 20085 55012 RVRNO $ COR 1807
PASY 191750Z COR 22012KT 1/8SM FG VV001 09/08 A2986 RMK WSHFT 1750 SLP115 WND DATA ESTMD RVRNO $ COR 1756
PASY 191658Z 16011KT 1/4SM FG VV001 09/08 A2987 RMK AO2A SLP118 WND DATA ESTMD T00870084 RVRNO $
PASY 191650Z 16011KT 1/4SM FG VV001 09/08 A2987 RMK AO2A SLP118 WND DATA ESTMD RVRNO $
PASY 191646Z 16012KT 1/4SM FG VV001 09/08 A2987 RMK AO2A SLP118 WND DATA ESTMD RVRNO $
PASY 191622Z 16010KT 5/8SM BR VV001 09/08 A2987 RMK AO2A SLP118 WND DATA ESTMD RVRNO $
PASY 191558Z 16012KT 3/4SM BR VV001 09/08 A2987 RMK AO2A SLP118 WND DATA ESTMD T00860083 RVRNO $
PASY 191555Z 16012KT 3/4SM BR VV001 09/08 A2987 RMK AO2A SLP118 WND DATA ESTMD RVRNO $
PASY 191535Z 16010G15KT 7/8SM BR VV001 09/08 A2987 RMK AO2A SLP118 WND DATA ESTMD RVRNO $
PASY 191501Z 16010G15KT 1 3/8SM BR OVC002 09/08 A2989 RMK SLP125 WND DATA ESTMD $
PASY 191458Z 16010G15KT 1 3/8SM BR OVC001 09/09 A2989 RMK AO2A SLP125 WND DATA ESTMD T00880085 57007 $
PASY 191455Z 16012KT 1 1/4SM BR OVC001 09/09 A2990 RMK AO2A SLP128 WND DATA ESTMD $
PASY 191436Z 16010G15KT 1SM BR VV001 09/09 A2990 RMK AO2A SLP128 WND DATA ESTMD RVRNO $
PASY 191358Z COR 16010KT 1SM BR VV002 09/09 A2990 RMK AO2 SLP128 WND DATA ESTMD T00880085 RVRNO $ COR 1359
PASY 191354Z AUTO M 1SM BR VV002 09/08 A2990 RMK AO2 SLP128 RVRNO $
PASY 191334Z 16010KT 1 1/8SM BR OVC003 09/08 A2990 RMK SLP128 WND DATA ESTMD $
PASY 191258Z 16010KT 1SM BR VV002 09/09 A2990 RMK AO2A SLP128 WND DATA ESTMD T00880085 RVRNO $
PASY 191253Z 16010KT 1SM BR VV002 09/08 A2990 RMK AO2A SLP128 WND DATA ESTMD RVRNO $
PASY 191158Z 16009KT 1SM BR VV003 09/08 A2991 RMK AO2A RAE02DZB02E04RAB10E11DZB11E26RAB26E36DZB36E55 SLP132 WND DATA ESTMD P0001 60006 70021 T00860083 10089 20084 56015 RVRNO $
PASY 191155Z 16008KT 1SM BR VV003 09/08 A2991 RMK AO2A RAE02DZB02E04RAB10E11DZB11E26RAB26E36DZB36E55 SLPNO WND DATA ESTMD RVRNO $
PASY 191150Z 16008KT 7/8SM -DZ BR VV002 09/08 A2991 RMK AO2A RAE02DZB02E04RAB10E11DZB11E26RAB26E36DZB36 SLPNO WND DATA ESTMD RVRNO $
PASY 191058Z 16008KT 3/4SM -RA BR VV001 09/08 A2992 RMK AO2A RAB49 SLP135 WND DATA ESTMD P0001 T00850082 RVRNO $
PASY 191054Z 16008KT 5/8SM -RA BR VV001 08/08 A2992 RMK AO2A RAB49 SLP135 WND DATA ESTMD RVRNO $
PASY 191053Z 16008KT 5/8SM -RA BR VV001 09/08 A2992 RMK RAB49 SLP135 WND DATA ESTMD RVRNO $
PASY 191021Z 16010KT 5/8SM BR VV001 09/08 A2993 RMK SLP139 WND DATA ESTMD RVRNO $
PASY 190958Z 16010KT 5/8SM BR VV002 09/08 A2994 RMK AO2A VIS 5/8V1 1/8 RAE13RAB17E30 SLP142 WND DATA ESTMD P0002 RVRNO $
PASY 190955Z 16010KT 3/4SM BR VV002 09/08 A2994 RMK AO2A VIS 3/4V1 1/2 RAE13RAB17E30 SLP142 WND DATA ESTMD RVRNO $
PASY 190947Z 16013G18KT 3/4SM BR OVC002 09/08 A2994 RMK AO2A VIS 1 1/4V7 RAE13RAB17E30 SLP142 WND DATA ESTMD $
PASY 190858Z 16010G15KT 7/8SM -RA BR VV002 09/08 A2996 RMK AO2A RAB39 SLP149 WND DAATA ESTMD P0002 60002 T00870084 51005 RVRNO $
PASY 190849Z AUTO M 3/4SM -RA BR VV002 09/08 A2996 RMK AO2 RAB39 SLP149 RVRNO $
PASY 190839Z AUTO M 1/2SM -RA FG VV002 09/08 A2995 RMK AO2 RAB39 SLP145 RVRNO $
PASY 190838Z AUTO M 1/2SM FG VV002 09/08 A2995 RMK AO2 SLP145 RVRNO $
PASY 190828Z AUTO M 3/8SM FG VV003 09/08 A2995 RMK AO2 SLP145 RVRNO $
PASY 190818Z AUTO M 5/8SM BR VV003 09/08 A2996 RMK AO2 CIG 003V005 SLP149 RVRNO $
PASY 190808Z AUTO M 7/8SM BR VV005 09/08 A2996 RMK AO2 SLP149 RVRNO $
PASY 190758Z AUTO M 1SM BR OVC006 09/08 A2996 RMK AO2 OVC V BKN SLP149 T00870084 RVRNO $
PASY 190748Z AUTO M 1SM BR FEW001 OVC006 09/08 A2996 RMK AO2 SLP149 RVRNO $
PASY 190738Z AUTO M 1 1/4SM BR FEW001 BKN007 BKN011 OVC022 09/08 A2995 RMK AO2 CIG 007V009 SLP145 $
PASY 190728Z AUTO M 1 1/4SM BR SCT001 BKN009 OVC021 09/09 A2995 RMK AO2 CIG 001V009 SLP145 $
PASY 190708Z AUTO M 1 5/8SM BR BKN001 OVC021 09/09 A2995 RMK AO2 VIS 1/2V1 5/8 BKN V OVC SLP145 $
PASY 190658Z AUTO M 1/2SM FG VV001 09/08 A2995 RMK AO2 SLP145 T00870084 RVRNO $
PASY 190648Z AUTO M 3/4SM BR VV001 09/08 A2995 RMK AO2 VIS 3/4V3 SLP145 RVRNO $
PASY 190638Z AUTO M 3SM BR OVC001 09/09 A2994 RMK AO2 SLP142 $
PASY 190628Z AUTO M 2SM BR OVC001 09/09 A2995 RMK AO2 VIS 1/2V2 SLP145 $
PASY 190618Z AUTO M 1/2SM FG VV001 09/08 A2994 RMK AO2 SLP142 RVRNO $
PASY 190608Z AUTO M 3/8SM FG VV001 09/08 A2994 RMK AO2 SLP142 RVRNO $
PASY 190558Z AUTO M 1/2SM FG VV001 09/08 A2994 RMK AO2 SLP142 T00880084 10096 20087 58006 RVRNO $
PASY 190553Z AUTO M 5/8SM BR VV001 09/08 A2995 RMK AO2 SLP145 RVRNO $
PASY 190543Z AUTO M 5/8SM BR VV001 09/08 A2994 RMK AO2 SLP142 RVRNO $
PASY 190533Z AUTO M 3/4SM BR VV001 09/08 A2995 RMK AO2 VIS 3/4V4 SLP145 RVRNO $
PASY 190528Z AUTO M 1 3/4SM BR OVC002 09/08 A2995 RMK AO2 VIS 1 3/4V5 SLP145 $
PASY 190518Z AUTO M 2 1/4SM BR OVC002 09/08 A2995 RMK AO2 VIS 1 3/4V2 3/4 SLP145 $
PASY 190458Z AUTO M 7SM OVC002 09/08 A2995
PASY 190418Z AUTO M 3SM BR OVC002 09/09 A2996 RMK AO2 SLP149 $
PASY 190408Z AUTO M 2 3/4SM BR OVC002 09/09 A2996 RMK AO2 VIS 2 3/4V5 SLP149 $
PASY 190358Z AUTO M 6SM BR OVC002 09/09 A2996 RMK AO2 SLP149 T00900087 $
PASY 190258Z AUTO M 7SM OVC002 09/09 A2996
PASY 190158Z AUTO M 7SM OVC002 09/09 A2996
PASY 190138Z AUTO M 7SM OVC002 09/09 A2996 RMK AO2 SLP149 $
PASY 190058Z AUTO M 7SM OVC003 09/09 A2996
PASY 190051Z AUTO M 7SM OVC003 09/09 A2996 RMK AO2 SLP149 $
PASY 190049Z 16010KT 1/2SM FG OVC003 09/09 A2996 RMK SLP149 WND DATA ESTMD $
PASY 182357Z 15010KT 1/2SM FG VV002 09/09 A2996 RMK VIS N 1/4 SLP147 WND DATA ESTMD 60006 T00920089 10093 20077 56004 RVRNO $
PASY 182259Z 15010KT 1/4SM BR OVC002 09/09 A2995 RMK SLP145 WND DATA ESTMD 58005 $
PASY 182238Z 15010KT 1/2SM FG VV002 09/09 A2996 RMK VIS 1/4 SLP149 WND DATA ESTMD $
PASY 182156Z 16009KT 1/4SM FG VV002 09/08 A2996 RMK SLP149 WND DATA ESTMD P0001 T00860083 RVRNO $
PASY 182147Z 16008KT 1/4SM FG VV002 08/08 A2996 RMK SLP149 WND DATA ESTMD RVRNO $
PASY 182056Z 15010KT 1/4SM FG VV002 08/08 A2997 RMK VIS W 1/2 SLP152 WND DATA ESTMD 60005 T00840081 55004 RVRNO $
PASY 181956Z 15011KT 1/2SM FG OVC002 08/08 A2996 RMK VIS 1/4V3/4 RAE04 SLP149 WND DATA ESTMD P0000 T00830080 $
PASY 181911Z 14010KT 1/2SM FG VV002 08/08 A2997 RMK VIS 1/4V3/4 SLP152 WND DATA ESTMD RVRNO $
PASY 181857Z 14010KT 3/4SM -RA BR OVC002 08/08 A2997 RMK RAB00 SLP152 WND DATA ESTMD P0005 T00790076 $
PASY 181816Z 14010KT 2SM -RA BR OVC002 08/08 A2998 RMK RAB00 SLP156 WND DATA ESTMD $
PASY 181808Z 14010KT 3SM -RA BR OVC003 08/07 A2998 RMK RAB00 OVC V BKN SLP156 WND DATA ESTMD $
PASY 181756Z 14010KT 5SM BR BKN003 BKN008 OVC012 08/08 A2998 RMK CIG 003V010 BKN003 V SCT SLP156 WND DATA ESTMD P0002 60009 T00780075 10078 20074 57011 $
PASY 181658Z 15010G15KT 5SM BR OVC002 08/07 A2999 RMK AO2A RAE36 SLP159 WND DATA ESTMD P0002 T00770074 $
PASY 181636Z 14008KT 7SM OVC002 08/07 A3000 RMK AO2A RAE36 OVC V BKN SLP162 WND DATA ESTMD $
PASY 181628Z 13008KT 7SM -RA BR BKN003 OVC013 08/07 A3000 RMK AO2A SLP162 WND DATA ESTMD $
PASY 181618Z 13008KT 6SM -RA BR SCT002 BKN006 OVC013 08/07 A3000 RMK AO2A CIG 004V006 SLP162 WND DATA ESTMD $
PASY 181558Z 13008KT 5SM -RA BR OVC004 08/07 A3001 RMK AO2A CIG 003V005 SLP166 WND DATA ESTMD P0005 $
PASY 181538Z 14008KT 3SM -RA BR OVC003 08/07 A3000 RMK AO2A SLP162 WND DATA ESTMD $
PASY 181518Z 14008KT 1SM -RA BR OVC002 08/07 A3000 RMK VIS 1 1/4V2 SLP162 WND DATA ESTMD $
PASY 181458Z 23005KT 1SM -RA BR VV002 08/07 A3001 RMK AO2A VIS 7/8V2 3/4 RAB21 SLP166 WND DATA ESTMD P0000 60000 57011 RVRNO $
PASY 181456Z 23005KT 7/8SM -RA BR VV002 08/07 A3001 RMK AO2A VIS 7/8V4 RAB21 SLP166 WND DATA ESTMD RVRNO $
PASY 181451Z 22005KT 1 1/2SM -RA BR OVC003 08/07 A3002 RMK AO2A VIS 1 1/2V7 RAB21 SLP169 WND DATA ESTMD $
PASY 181441Z AUTO M 7SM -RA OVC003 08/07 A3002 RMK AO2 RAB21 SLP169 $
PASY 181421Z AUTO M 7SM -RA OVC002 08/07 A3003 RMK AO2 RAB21 OVC V BKN SLP173 $
PASY 181403Z 23005KT 5SM BR BKN002 OVC006 07/07 A3002 RMK CIG 002V007 BKN V SCT SLP169 WND DATA ESTMD $
PASY 181358Z 23005KT 7SM SCT002 OVC007 07/07 A3002 RMK AO2A CIG 005V007 SLP169 WND DATA ESTMD $
PASY 181328Z 23005KT 7SM BKN003 08/07 A3002 RMK AO2A CIG 001V003 SLP169 WND DATA ESTMD $
PASY 181258Z 23005KT 3/4SM BR VV001 08/07 A3002 RMK AO2A SLP169 WND DATA ESTMD T00760073 RVRNO $
PASY 181246Z 26005KT 3/4SM BR VV001 08/07 A3003 RMK AO2A SLP173 WND DATA ESTMD RVRNO $
PASY 181236Z 25005KT 5/8SM BR VV001 08/07 A3003 RMK AO2A SLP173 WND DATA ESTMD RVRNO $
PASY 181158Z 25005KT 3/4SM BR VV001 08/07 A3004 RMK AO2A SLP176 WND DATA ESTMD T00760073 10084 20076 58002 RVRNO $
PASY 181153Z 276005KT 3/4SM BR VV002 08/07 A3004 RMK AO2A SLP176 WND DATA ESTMD RVRNO $
PASY 181058Z 26005KT 1 1/4SM BR OVC002 08/07 A3005 RMK AO2A VIS 1 1/4V1 3/4 SLP179 WND DATA ESTMD T00770074 $26005KT
PASY 181051Z 27005KT 1 1/2SM BR OVC002 08/07 A3005 RMK AO2A VIS 1 1/2V3 SLP179 WND DATA ESTMD $
PASY 181041Z 27005KT 4SM BR OVC003 08/08 A3005 RMK AO2A CIG 003V005 SLP179 WND DATA ESTMD $
PASY 180958Z 26005KT 5SM BR FEW002 OVC006 08/08 A3005 RMK AO2A SLP179 WND DATA ESTMD T00820079 400960075 $
PASY 180957Z 26005KT 5SM BR FEW002 OVC006 08/08 A3005 RMK AO2A SLP179 WND DATA ESTMD $
PASY 180913Z 26005KT 3SM BR BKN003 OVC008 08/08 A3005 RMK AO2A SLP179 WND DATA ESTMD $
PASY 180858Z 26005KT 2 1/4SM BR BKN003 OVC008 08/08 A3005 RMK AO2 VIS 7/8V2 1/4 SLP179 WND DATA ESTMD 52006 $ COR 0906
PASY 180853Z AUTO M 1 1/8SM BR BKN003 OVC008 08/08 A3005 RMK AO2 SLP179 $
PASY 180848Z AUTO M 7/8SM BR VV002 08/07 A3005 RMK AO2 SLP179 RVRNO $